createdAt,value
2022-10-23T00:01:42.838Z,13.92
2022-10-23T00:04:15.673Z,13.98
2022-10-23T00:06:43.334Z,13.89
2022-10-23T00:09:13.288Z,13.76
2022-10-23T00:11:40.323Z,13.71
2022-10-23T00:14:08.345Z,13.70
2022-10-23T00:16:34.834Z,13.68
2022-10-23T00:19:01.876Z,13.56
2022-10-23T00:21:28.602Z,13.69
2022-10-23T00:24:00.435Z,13.62
2022-10-23T00:26:27.119Z,13.60
2022-10-23T00:28:53.949Z,13.59
2022-10-23T00:31:21.481Z,13.63
2022-10-23T00:33:48.889Z,13.69
2022-10-23T00:36:18.661Z,13.66
2022-10-23T00:38:46.117Z,13.63
2022-10-23T00:41:20.457Z,13.59
2022-10-23T00:44:02.188Z,13.60
2022-10-23T00:46:28.858Z,13.57
2022-10-23T00:48:55.554Z,13.42
2022-10-23T00:51:22.057Z,13.43
2022-10-23T00:54:01.057Z,13.38
2022-10-23T00:56:38.551Z,13.33
2022-10-23T00:59:05.215Z,13.41
2022-10-23T01:01:31.811Z,13.32
2022-10-23T01:03:58.558Z,13.28
2022-10-23T01:06:43.496Z,13.38
2022-10-23T01:09:27.158Z,13.28
2022-10-23T01:11:59.830Z,13.19
2022-10-23T01:14:55.469Z,13.30
2022-10-23T01:17:27.392Z,13.20
2022-10-23T01:20:19.946Z,13.21
2022-10-23T01:23:07.703Z,13.29
2022-10-23T01:25:52.604Z,13.34
2022-10-23T01:28:27.429Z,13.37
2022-10-23T01:30:54.117Z,13.42
2022-10-23T01:33:35.944Z,13.22
2022-10-23T01:36:12.734Z,13.20
2022-10-23T01:38:51.456Z,13.18
2022-10-23T01:41:29.936Z,13.17
2022-10-23T01:43:57.005Z,13.24
2022-10-23T01:46:23.785Z,13.16
2022-10-23T01:48:54.106Z,13.14
2022-10-23T01:51:25.043Z,13.20
2022-10-23T01:53:53.016Z,13.12
2022-10-23T01:56:23.100Z,13.11
2022-10-23T01:58:53.003Z,13.02
2022-10-23T02:01:20.483Z,13.15
2022-10-23T02:03:48.127Z,13.26
2022-10-23T02:06:14.797Z,13.29
2022-10-23T02:08:41.578Z,13.18
2022-10-23T02:11:10.567Z,13.20
2022-10-23T02:14:04.965Z,13.23
2022-10-23T02:16:40.894Z,13.08
2022-10-23T02:19:19.417Z,12.96
2022-10-23T02:21:56.243Z,12.95
2022-10-23T02:24:33.588Z,13.08
2022-10-23T02:27:03.108Z,13.11
2022-10-23T02:29:40.559Z,13.21
2022-10-23T02:32:08.929Z,13.19
2022-10-23T02:34:36.127Z,13.11
2022-10-23T02:37:02.842Z,13.00
2022-10-23T02:39:29.587Z,12.94
2022-10-23T02:42:10.246Z,13.06
2022-10-23T02:44:44.319Z,13.15
2022-10-23T02:47:20.093Z,13.11
2022-10-23T02:49:55.462Z,13.09
2022-10-23T02:52:55.347Z,12.90
2022-10-23T02:55:40.091Z,12.64
2022-10-23T02:58:25.313Z,12.54
2022-10-23T03:00:55.896Z,12.59
2022-10-23T03:03:27.559Z,12.52
2022-10-23T03:05:54.235Z,12.64
2022-10-23T03:08:20.708Z,12.68
2022-10-23T03:13:19.004Z,12.46
2022-10-23T03:15:45.459Z,12.56
2022-10-23T03:18:11.950Z,12.37
2022-10-23T03:20:38.388Z,12.40
2022-10-23T03:23:05.291Z,12.50
2022-10-23T03:25:31.857Z,12.49
2022-10-23T03:27:58.366Z,12.55
2022-10-23T03:30:25.263Z,12.43
2022-10-23T03:32:51.697Z,12.26
2022-10-23T03:35:18.637Z,12.36
2022-10-23T03:37:45.410Z,12.40
2022-10-23T03:40:11.982Z,12.44
2022-10-23T03:42:39.155Z,12.28
2022-10-23T03:45:06.246Z,12.11
2022-10-23T03:47:32.720Z,12.09
2022-10-23T03:49:59.172Z,12.22
2022-10-23T03:52:25.645Z,12.10
2022-10-23T03:54:52.132Z,11.92
2022-10-23T03:57:18.672Z,11.95
2022-10-23T03:59:45.172Z,12.08
2022-10-23T04:02:11.746Z,11.88
2022-10-23T04:04:38.328Z,11.98
2022-10-23T04:07:04.769Z,12.09
2022-10-23T04:09:31.243Z,12.18
2022-10-23T04:11:57.797Z,11.99
2022-10-23T04:14:44.513Z,12.04
2022-10-23T04:17:13.202Z,12.13
2022-10-23T04:19:39.645Z,11.97
2022-10-23T04:22:06.099Z,11.98
2022-10-23T04:24:32.625Z,11.98
2022-10-23T04:26:59.084Z,12.04
2022-10-23T04:29:25.751Z,11.97
2022-10-23T04:31:54.570Z,11.98
2022-10-23T04:34:21.144Z,12.07
2022-10-23T04:36:47.585Z,12.13
2022-10-23T04:39:14.120Z,11.99
2022-10-23T04:41:40.798Z,12.00
2022-10-23T04:44:07.753Z,11.97
2022-10-23T04:46:34.254Z,12.04
2022-10-23T04:49:00.707Z,11.86
2022-10-23T04:51:27.257Z,11.97
2022-10-23T04:53:53.739Z,12.04
2022-10-23T04:56:20.211Z,11.98
2022-10-23T04:58:46.674Z,11.92
2022-10-23T05:01:13.191Z,12.09
2022-10-23T05:03:39.753Z,12.22
2022-10-23T05:06:06.431Z,12.26
2022-10-23T05:08:32.948Z,12.06
2022-10-23T05:10:59.404Z,11.82
2022-10-23T05:13:25.865Z,11.73
2022-10-23T05:15:53.298Z,11.89
2022-10-23T05:18:30.191Z,12.00
2022-10-23T05:21:02.719Z,11.96
2022-10-23T05:23:30.879Z,12.01
2022-10-23T05:25:57.375Z,12.17
2022-10-23T05:28:23.907Z,12.37
2022-10-23T05:30:50.429Z,12.56
2022-10-23T05:33:17.127Z,12.46
2022-10-23T05:35:44.473Z,12.49
2022-10-23T05:38:11.408Z,12.49
2022-10-23T05:43:09.257Z,12.39
2022-10-23T05:45:35.807Z,12.40
2022-10-23T05:48:11.014Z,12.40
2022-10-23T05:50:48.813Z,12.23
2022-10-23T05:53:15.366Z,12.17
2022-10-23T05:55:41.942Z,12.18
2022-10-23T05:58:08.674Z,12.18
2022-10-23T06:00:35.174Z,12.22
2022-10-23T06:03:02.890Z,12.07
2022-10-23T06:05:29.390Z,12.02
2022-10-23T06:07:59.337Z,12.02
2022-10-23T06:10:26.530Z,12.07
2022-10-23T06:12:53.012Z,12.13
2022-10-23T06:15:19.823Z,12.30
2022-10-23T06:17:46.446Z,12.33
2022-10-23T06:20:13.045Z,12.18
2022-10-23T06:22:39.691Z,12.20
2022-10-23T06:25:06.875Z,12.20
2022-10-23T06:27:33.337Z,11.94
2022-10-23T06:29:59.876Z,11.65
2022-10-23T06:32:26.471Z,11.61
2022-10-23T06:34:52.952Z,11.58
2022-10-23T06:37:20.188Z,11.68
2022-10-23T06:39:46.832Z,12.06
2022-10-23T06:42:13.284Z,12.11
2022-10-23T06:44:39.736Z,12.34
2022-10-23T06:47:06.324Z,12.39
2022-10-23T06:49:32.832Z,12.46
2022-10-23T06:51:59.287Z,12.63
2022-10-23T06:54:25.830Z,12.62
2022-10-23T06:56:52.344Z,12.92
2022-10-23T06:59:18.933Z,12.99
2022-10-23T07:01:45.727Z,13.04
2022-10-23T07:04:12.358Z,13.15
2022-10-23T07:06:38.908Z,13.18
2022-10-23T07:09:05.343Z,13.41
2022-10-23T07:11:31.852Z,13.62
2022-10-23T07:13:58.737Z,13.78
2022-10-23T07:16:25.435Z,14.07
2022-10-23T07:18:57.524Z,14.37
2022-10-23T07:21:25.078Z,14.52
2022-10-23T07:23:51.849Z,14.69
2022-10-23T07:26:21.878Z,14.79
2022-10-23T07:28:49.488Z,14.97
2022-10-23T07:31:16.378Z,15.02
2022-10-23T07:33:42.859Z,15.27
2022-10-23T07:36:10.094Z,15.44
2022-10-23T07:38:36.679Z,15.59
2022-10-23T07:41:03.233Z,15.76
2022-10-23T07:43:29.784Z,15.86
2022-10-23T07:45:56.411Z,16.10
2022-10-23T07:48:23.322Z,16.26
2022-10-23T07:50:50.854Z,16.37
2022-10-23T07:53:21.956Z,16.61
2022-10-23T07:55:58.863Z,16.72
2022-10-23T07:58:27.191Z,16.84
2022-10-23T08:01:01.567Z,16.91
2022-10-23T08:03:32.874Z,16.98
2022-10-23T08:06:00.093Z,17.10
2022-10-23T08:08:27.304Z,17.20
2022-10-23T08:10:55.246Z,17.30
2022-10-23T08:13:22.618Z,17.37
2022-10-23T08:15:50.574Z,17.43
2022-10-23T08:18:17.261Z,17.52
2022-10-23T08:20:45.372Z,17.58
2022-10-23T08:23:12.517Z,17.48
2022-10-23T08:25:40.206Z,17.49
2022-10-23T08:28:07.497Z,17.61
2022-10-23T08:30:34.133Z,17.69
2022-10-23T08:33:03.570Z,17.88
2022-10-23T08:35:32.406Z,17.71
2022-10-23T08:37:59.118Z,17.84
2022-10-23T08:40:26.112Z,17.80
2022-10-23T08:43:04.969Z,17.81
2022-10-23T08:45:43.064Z,17.91
2022-10-23T08:48:19.957Z,17.89
2022-10-23T08:50:50.460Z,17.82
2022-10-23T08:53:41.881Z,17.84
2022-10-23T08:56:22.789Z,17.81
2022-10-23T08:58:54.773Z,17.90
2022-10-23T09:01:25.291Z,17.90
2022-10-23T09:03:51.929Z,17.90
2022-10-23T09:06:36.740Z,17.87
2022-10-23T09:09:18.277Z,17.75
2022-10-23T09:12:10.922Z,17.90
2022-10-23T09:14:58.993Z,17.60
2022-10-23T09:17:27.858Z,17.51
2022-10-23T09:20:07.852Z,17.75
2022-10-23T09:22:34.216Z,17.58
2022-10-23T09:25:03.053Z,17.70
2022-10-23T09:27:29.502Z,17.72
2022-10-23T09:29:56.212Z,18.00
2022-10-23T09:32:36.731Z,18.01
2022-10-23T09:35:04.421Z,18.16
2022-10-23T09:37:33.043Z,18.33
2022-10-23T09:40:15.661Z,18.46
2022-10-23T09:43:14.017Z,18.19
2022-10-23T09:45:40.507Z,18.36
2022-10-23T09:48:12.922Z,18.41
2022-10-23T09:50:47.794Z,18.47
2022-10-23T09:53:22.154Z,18.18
2022-10-23T09:55:53.658Z,18.04
2022-10-23T09:58:31.705Z,17.76
2022-10-23T10:00:58.246Z,17.82
2022-10-23T10:03:25.168Z,17.90
2022-10-23T10:06:03.459Z,18.01
2022-10-23T10:08:40.496Z,18.23
2022-10-23T10:11:18.030Z,18.37
2022-10-23T10:14:09.893Z,18.25
2022-10-23T10:16:43.221Z,18.45
2022-10-23T10:19:44.550Z,18.42
2022-10-23T10:22:31.126Z,18.60
2022-10-23T10:25:13.173Z,18.86
2022-10-23T10:28:12.402Z,18.99
2022-10-23T10:30:56.448Z,18.93
2022-10-23T10:33:53.638Z,18.75
2022-10-23T10:36:41.441Z,19.09
2022-10-23T10:39:34.790Z,18.92
2022-10-23T10:42:07.140Z,19.10
2022-10-23T10:45:11.024Z,19.27
2022-10-23T10:47:54.320Z,19.47
2022-10-23T10:50:28.786Z,19.77
2022-10-23T10:53:07.536Z,19.92
2022-10-23T10:55:41.281Z,19.83
2022-10-23T10:58:31.510Z,19.91
2022-10-23T11:01:03.545Z,20.21
2022-10-23T11:03:40.078Z,20.24
2022-10-23T11:06:21.356Z,20.30
2022-10-23T11:08:57.740Z,20.05
2022-10-23T11:11:39.753Z,19.85
2022-10-23T11:14:07.498Z,19.69
2022-10-23T11:16:39.896Z,19.63
2022-10-23T11:19:15.891Z,19.73
2022-10-23T11:21:55.529Z,19.30
2022-10-23T11:24:49.444Z,19.28
2022-10-23T11:27:25.794Z,19.51
2022-10-23T11:29:55.591Z,19.51
2022-10-23T11:32:41.281Z,19.57
2022-10-23T11:35:35.041Z,19.92
2022-10-23T11:38:09.763Z,19.96
2022-10-23T11:40:36.292Z,19.92
2022-10-23T11:43:02.845Z,19.77
2022-10-23T11:45:36.614Z,19.74
2022-10-23T11:48:15.645Z,19.56
2022-10-23T11:50:44.458Z,19.45
2022-10-23T11:53:31.212Z,19.56
2022-10-23T11:56:13.141Z,19.59
2022-10-23T11:58:47.126Z,19.46
2022-10-23T12:01:30.909Z,19.41
2022-10-23T12:04:02.840Z,19.51
2022-10-23T12:06:39.942Z,19.67
2022-10-23T12:10:00.104Z,19.71
2022-10-23T12:12:37.480Z,19.77
2022-10-23T12:15:09.076Z,19.48
2022-10-23T12:17:38.124Z,19.56
2022-10-23T12:20:11.095Z,19.90
2022-10-23T12:22:50.472Z,20.00
2022-10-23T12:25:24.255Z,20.17
2022-10-23T12:28:06.037Z,20.35
2022-10-23T12:30:47.465Z,20.10
2022-10-23T12:33:19.393Z,19.99
2022-10-23T12:36:07.537Z,19.50
2022-10-23T12:38:42.701Z,18.86
2022-10-23T12:41:16.531Z,18.83
2022-10-23T12:43:45.769Z,18.91
2022-10-23T12:46:30.166Z,18.80
2022-10-23T12:48:57.857Z,18.84
2022-10-23T12:51:27.058Z,18.99
2022-10-23T12:53:53.950Z,19.13
2022-10-23T12:56:20.697Z,18.67
2022-10-23T12:58:50.002Z,18.57
2022-10-23T13:01:31.407Z,18.39
2022-10-23T13:06:49.847Z,18.62
2022-10-23T13:09:40.445Z,18.78
2022-10-23T13:12:08.490Z,18.70
2022-10-23T13:14:39.384Z,18.58
2022-10-23T13:17:11.267Z,18.85
2022-10-23T13:19:38.068Z,18.93
2022-10-23T13:22:13.932Z,18.96
2022-10-23T13:24:41.100Z,19.10
2022-10-23T13:27:32.881Z,18.94
2022-10-23T13:29:59.739Z,18.98
2022-10-23T13:32:29.277Z,19.10
2022-10-23T13:35:10.029Z,18.66
2022-10-23T13:40:23.639Z,18.83
2022-10-23T13:42:50.714Z,18.72
2022-10-23T13:45:24.674Z,18.62
2022-10-23T13:47:51.930Z,18.43
2022-10-23T13:50:18.798Z,18.33
2022-10-23T13:52:45.328Z,18.15
2022-10-23T13:55:20.352Z,18.26
2022-10-23T13:57:46.878Z,18.35
2022-10-23T14:00:13.768Z,18.47
2022-10-23T14:02:40.302Z,18.44
2022-10-23T14:05:06.994Z,18.71
2022-10-23T14:07:36.305Z,18.77
2022-10-23T14:10:04.325Z,18.95
2022-10-23T14:12:31.587Z,19.00
2022-10-23T14:14:58.135Z,19.08
2022-10-23T14:17:24.604Z,18.94
2022-10-23T14:19:51.081Z,18.71
2022-10-23T14:22:17.909Z,18.80
2022-10-23T14:24:44.418Z,18.93
2022-10-23T14:27:11.004Z,19.05
2022-10-23T14:29:37.466Z,19.18
2022-10-23T14:32:04.534Z,19.13
2022-10-23T14:34:31.003Z,19.17
2022-10-23T14:37:08.204Z,18.87
2022-10-23T14:39:35.193Z,18.29
2022-10-23T14:42:01.792Z,18.12
2022-10-23T14:44:28.649Z,17.84
2022-10-23T14:46:55.128Z,17.79
2022-10-23T14:49:21.704Z,17.82
2022-10-23T14:51:48.140Z,17.98
2022-10-23T14:54:14.718Z,18.15
2022-10-23T14:56:41.228Z,18.18
2022-10-23T14:59:08.106Z,18.10
2022-10-23T15:01:45.778Z,18.26
2022-10-23T15:04:14.755Z,18.45
2022-10-23T15:06:41.502Z,18.54
2022-10-23T15:09:07.972Z,18.23
2022-10-23T15:11:34.468Z,18.16
2022-10-23T15:14:03.772Z,18.16
2022-10-23T15:16:30.772Z,17.84
2022-10-23T15:18:57.313Z,17.89
2022-10-23T15:21:24.243Z,17.94
2022-10-23T15:23:51.047Z,17.96
2022-10-23T15:26:19.111Z,18.20
2022-10-23T15:28:45.795Z,18.20
2022-10-23T15:31:30.615Z,18.20
2022-10-23T15:33:57.621Z,17.94
2022-10-23T15:36:24.836Z,18.07
2022-10-23T15:38:52.212Z,18.18
2022-10-23T15:41:23.836Z,18.21
2022-10-23T15:46:21.758Z,18.05
2022-10-23T15:48:48.243Z,18.05
2022-10-23T15:51:14.716Z,17.98
2022-10-23T15:53:41.160Z,18.00
2022-10-23T15:56:09.820Z,17.93
2022-10-23T15:58:36.377Z,17.88
2022-10-23T16:01:04.115Z,17.90
2022-10-23T16:03:30.658Z,17.98
2022-10-23T16:05:57.177Z,17.89
2022-10-23T16:08:23.654Z,17.82
2022-10-23T16:10:50.113Z,17.94
2022-10-23T16:13:16.554Z,17.80
2022-10-23T16:15:43.051Z,17.87
2022-10-23T16:18:10.131Z,17.96
2022-10-23T16:20:39.977Z,17.94
2022-10-23T16:23:06.435Z,18.03
2022-10-23T16:25:36.131Z,18.03
2022-10-23T16:28:02.773Z,18.06
2022-10-23T16:30:29.520Z,18.08
2022-10-23T16:32:56.142Z,18.08
2022-10-23T16:35:22.946Z,17.95
2022-10-23T16:37:49.528Z,17.87
2022-10-23T16:40:16.148Z,17.93
2022-10-23T16:42:42.758Z,17.82
2022-10-23T16:45:09.966Z,17.87
2022-10-23T16:47:36.422Z,17.68
2022-10-23T16:50:03.752Z,17.75
2022-10-23T16:52:30.285Z,17.73
2022-10-23T16:54:56.917Z,17.82
2022-10-23T16:57:23.401Z,17.74
2022-10-23T16:59:49.853Z,17.57
2022-10-23T17:02:16.516Z,17.44
2022-10-23T17:04:43.195Z,17.40
2022-10-23T17:07:09.751Z,17.48
2022-10-23T17:09:36.266Z,17.67
2022-10-23T17:12:06.011Z,17.66
2022-10-23T17:14:32.524Z,17.85
2022-10-23T17:17:00.880Z,17.89
2022-10-23T17:19:45.932Z,17.69
2022-10-23T17:22:13.988Z,17.43
2022-10-23T17:24:41.753Z,17.47
2022-10-23T17:27:08.212Z,17.32
2022-10-23T17:29:37.174Z,17.22
2022-10-23T17:32:03.705Z,17.24
2022-10-23T17:34:30.204Z,17.03
2022-10-23T17:36:59.502Z,17.05
2022-10-23T17:39:28.102Z,17.25
2022-10-23T17:41:55.231Z,17.12
2022-10-23T17:44:22.041Z,16.87
2022-10-23T17:46:52.733Z,16.76
2022-10-23T17:49:19.421Z,16.76
2022-10-23T17:51:46.051Z,16.77
2022-10-23T17:54:12.998Z,16.81
2022-10-23T17:56:39.717Z,16.78
2022-10-23T17:59:09.938Z,16.78
2022-10-23T18:01:36.564Z,16.74
2022-10-23T18:04:05.824Z,16.78
2022-10-23T18:06:41.555Z,16.85
2022-10-23T18:09:08.738Z,16.67
2022-10-23T18:11:37.573Z,16.60
2022-10-23T18:14:05.493Z,16.77
2022-10-23T18:16:34.965Z,16.70
2022-10-23T18:19:02.103Z,16.74
2022-10-23T18:21:31.701Z,17.04
2022-10-23T18:23:59.655Z,17.04
2022-10-23T18:26:28.707Z,17.27
2022-10-23T18:28:57.108Z,17.27
2022-10-23T18:31:24.852Z,17.32
2022-10-23T18:34:11.363Z,17.25
2022-10-23T18:36:39.736Z,17.14
2022-10-23T18:39:09.279Z,17.27
2022-10-23T18:41:41.379Z,17.36
2022-10-23T18:44:08.465Z,17.32
2022-10-23T18:46:35.578Z,17.34
2022-10-23T18:49:02.146Z,17.49
2022-10-23T18:51:30.839Z,17.46
2022-10-23T18:54:00.587Z,17.24
2022-10-23T18:56:27.081Z,17.40
2022-10-23T18:58:56.245Z,17.41
2022-10-23T19:01:23.558Z,17.43
2022-10-23T19:03:50.326Z,16.84
2022-10-23T19:06:17.914Z,16.98
2022-10-23T19:08:45.386Z,16.94
2022-10-23T19:11:15.462Z,16.87
2022-10-23T19:13:42.226Z,16.54
2022-10-23T19:16:21.416Z,16.26
2022-10-23T19:18:59.556Z,16.06
2022-10-23T19:21:28.525Z,16.14
2022-10-23T19:23:56.763Z,16.11
2022-10-23T19:26:23.257Z,16.15
2022-10-23T19:28:49.743Z,16.06
2022-10-23T19:31:16.318Z,16.02
2022-10-23T19:33:42.938Z,15.99
2022-10-23T19:36:13.837Z,16.14
2022-10-23T19:38:41.599Z,16.33
2022-10-23T19:41:08.724Z,16.18
2022-10-23T19:43:35.465Z,16.10
2022-10-23T19:46:05.065Z,15.96
2022-10-23T19:48:34.430Z,16.01
2022-10-23T19:51:01.196Z,16.05
2022-10-23T19:53:27.896Z,16.00
2022-10-23T19:56:08.090Z,16.06
2022-10-23T19:58:37.826Z,16.10
2022-10-23T20:01:09.878Z,16.10
2022-10-23T20:03:36.454Z,16.16
2022-10-23T20:06:03.121Z,16.23
2022-10-23T20:08:32.691Z,16.13
2022-10-23T20:11:01.692Z,16.11
2022-10-23T20:13:28.204Z,16.17
2022-10-23T20:15:57.070Z,16.06
2022-10-23T20:18:23.938Z,16.06
2022-10-23T20:20:50.436Z,16.11
2022-10-23T20:23:19.257Z,16.12
2022-10-23T20:25:48.107Z,16.12
2022-10-23T20:28:15.344Z,16.01
2022-10-23T20:30:42.412Z,16.04
2022-10-23T20:33:09.277Z,16.32
2022-10-23T20:35:42.512Z,16.33
2022-10-23T20:38:09.954Z,16.32
2022-10-23T20:40:37.086Z,16.33
2022-10-23T20:43:06.576Z,16.27
2022-10-23T20:45:34.033Z,16.30
2022-10-23T20:48:00.694Z,16.45
2022-10-23T20:50:27.212Z,16.50
2022-10-23T20:52:53.724Z,16.58
2022-10-23T20:55:20.471Z,16.52
2022-10-23T20:57:47.215Z,16.42
2022-10-23T21:00:14.087Z,16.14
2022-10-23T21:02:40.676Z,16.01
2022-10-23T21:05:07.666Z,16.01
2022-10-23T21:07:34.206Z,16.04
2022-10-23T21:10:01.693Z,15.90
2022-10-23T21:12:28.171Z,15.81
2022-10-23T21:14:54.641Z,15.74
2022-10-23T21:17:21.197Z,16.01
2022-10-23T21:19:47.783Z,16.12
2022-10-23T21:22:14.251Z,16.02
2022-10-23T21:24:40.787Z,16.10
2022-10-23T21:27:07.314Z,16.30
2022-10-23T21:29:33.935Z,16.13
2022-10-23T21:32:00.896Z,15.95
2022-10-23T21:34:28.167Z,16.02
2022-10-23T21:39:42.150Z,15.77
2022-10-23T21:42:08.656Z,15.69
2022-10-23T21:44:35.287Z,15.85
2022-10-23T21:47:01.928Z,16.00
2022-10-23T21:49:28.424Z,16.27
2022-10-23T21:51:55.141Z,16.39
2022-10-23T21:54:22.142Z,16.26
2022-10-23T21:56:50.625Z,16.30
2022-10-23T21:59:19.507Z,16.44
2022-10-23T22:01:47.341Z,16.53
2022-10-23T22:04:15.389Z,16.49
2022-10-23T22:06:43.101Z,16.68
2022-10-23T22:09:15.391Z,16.78
2022-10-23T22:11:42.159Z,16.74
2022-10-23T22:14:09.064Z,16.67
2022-10-23T22:16:35.619Z,16.40
2022-10-23T22:19:02.808Z,16.43
2022-10-23T22:21:30.522Z,16.55
2022-10-23T22:23:58.267Z,16.34
2022-10-23T22:26:31.611Z,16.16
2022-10-23T22:29:00.936Z,16.13
2022-10-23T22:31:30.497Z,16.00
2022-10-23T22:33:57.725Z,15.91
2022-10-23T22:36:25.420Z,15.99
2022-10-23T22:38:52.609Z,16.04
2022-10-23T22:41:19.315Z,16.02
2022-10-23T22:43:45.799Z,16.03
2022-10-23T22:46:14.429Z,16.00
2022-10-23T22:48:40.941Z,15.94
2022-10-23T22:51:09.303Z,15.58
2022-10-23T22:53:35.862Z,15.41
2022-10-23T22:56:06.490Z,15.48
2022-10-23T22:58:33.331Z,15.61
2022-10-23T23:01:09.995Z,15.64
2022-10-23T23:03:37.324Z,15.49
2022-10-23T23:06:05.656Z,15.53
2022-10-23T23:08:33.423Z,15.52
2022-10-23T23:11:00.313Z,15.58
2022-10-23T23:13:27.354Z,15.59
2022-10-23T23:15:53.982Z,15.68
2022-10-23T23:18:20.668Z,15.71
2022-10-23T23:20:47.429Z,15.67
2022-10-23T23:23:14.488Z,15.43
2022-10-23T23:25:42.492Z,15.54
2022-10-23T23:28:08.940Z,15.33
2022-10-23T23:30:35.445Z,15.29
2022-10-23T23:33:02.006Z,15.40
2022-10-23T23:35:28.471Z,15.34
2022-10-23T23:37:55.234Z,15.35
2022-10-23T23:40:21.824Z,15.21
2022-10-23T23:42:48.490Z,15.17
2022-10-23T23:45:15.416Z,15.21
2022-10-23T23:47:42.220Z,15.20
2022-10-23T23:50:10.199Z,15.30
2022-10-23T23:52:36.886Z,15.37
2022-10-23T23:55:07.332Z,15.45
2022-10-23T23:57:33.897Z,15.37
